Time;durP1;ratioP1;P1;durP2;ratioP2;P2;SDS_P1;SDS_P2;PMS_P1;PMS_P2;Temp;Humidity;BMP_temperature;BMP_pressure;BME280_temperature;BME280_humidity;BME280_pressure;Samples;Min_cycle;Max_cycle;Signal;HPM_P1;HPM_P2
2022/08/21 00:00:14;;;;;;;59.30;4.03;;;;;;;;;;5117173;28;20449;-68
2022/08/21 00:02:47;;;;;;;59.57;3.87;;;;;;;;;;5117574;28;20541;-68
2022/08/21 00:05:14;;;;;;;60.40;4.03;;;;;;;;;;5117638;28;20448;-68
2022/08/21 00:07:43;;;;;;;59.43;4.00;;;;;;;;;;5117378;28;20883;-68
2022/08/21 00:10:10;;;;;;;60.70;4.17;;;;;;;;;;5117613;28;20754;-68
2022/08/21 00:12:37;;;;;;;59.97;3.73;;;;;;;;;;5117016;28;20492;-68
2022/08/21 00:15:05;;;;;;;61.60;4.80;;;;;;;;;;5117318;28;20446;-68
2022/08/21 00:17:32;;;;;;;59.80;4.00;;;;;;;;;;5117075;28;20528;-68
2022/08/21 00:19:59;;;;;;;60.30;4.40;;;;;;;;;;5116748;28;20453;-68
2022/08/21 00:22:27;;;;;;;60.17;4.37;;;;;;;;;;5117604;28;20464;-68
2022/08/21 00:24:55;;;;;;;60.47;4.73;;;;;;;;;;5117346;28;20446;-68
2022/08/21 00:27:22;;;;;;;60.73;3.77;;;;;;;;;;5117230;28;20774;-68
2022/08/21 00:29:49;;;;;;;59.57;3.83;;;;;;;;;;5117022;28;20449;-69
2022/08/21 00:32:20;;;;;;;59.30;3.70;;;;;;;;;;5116955;28;20481;-68
2022/08/21 00:34:47;;;;;;;60.80;4.23;;;;;;;;;;5116959;28;20449;-68
2022/08/21 00:37:15;;;;;;;61.27;5.57;;;;;;;;;;5116970;28;20886;-68
2022/08/21 00:39:42;;;;;;;61.70;4.93;;;;;;;;;;5116525;28;20448;-69
2022/08/21 00:42:14;;;;;;;73.40;4.80;;;;;;;;;;5117156;28;20556;-68
2022/08/21 00:44:41;;;;;;;60.10;4.20;;;;;;;;;;5116995;28;20469;-68
2022/08/21 00:47:08;;;;;;;59.70;3.97;;;;;;;;;;5115714;28;20449;-69
2022/08/21 00:49:36;;;;;;;59.80;3.40;;;;;;;;;;5116514;28;20452;-68
2022/08/21 00:52:04;;;;;;;59.70;3.80;;;;;;;;;;5116787;28;20485;-68
2022/08/21 00:54:32;;;;;;;59.60;3.73;;;;;;;;;;5116559;28;20569;-68
2022/08/21 00:57:01;;;;;;;60.67;4.97;;;;;;;;;;5116792;28;20866;-67
2022/08/21 00:59:33;;;;;;;61.03;4.07;;;;;;;;;;5116149;28;20529;-68
2022/08/21 01:02:00;;;;;;;59.60;3.70;;;;;;;;;;5116669;28;20489;-68
2022/08/21 01:04:27;;;;;;;61.00;4.47;;;;;;;;;;5116759;28;20828;-67
2022/08/21 01:06:55;;;;;;;60.47;4.27;;;;;;;;;;5116067;28;20441;-69
2022/08/21 01:09:22;;;;;;;60.07;3.87;;;;;;;;;;5116201;28;20445;-68
2022/08/21 01:11:49;;;;;;;59.67;4.03;;;;;;;;;;5116115;28;20857;-68
2022/08/21 01:14:18;;;;;;;59.57;3.83;;;;;;;;;;5115467;28;20937;-68
2022/08/21 01:16:49;;;;;;;60.17;4.63;;;;;;;;;;5115396;28;20445;-67
2022/08/21 01:19:17;;;;;;;59.80;4.20;;;;;;;;;;5115169;28;20819;-67
2022/08/21 01:21:46;;;;;;;60.33;4.10;;;;;;;;;;5115059;28;20473;-68
2022/08/21 01:24:13;;;;;;;59.97;4.10;;;;;;;;;;5114927;28;20528;-68
2022/08/21 01:26:41;;;;;;;59.47;4.30;;;;;;;;;;5115054;28;20445;-68
2022/08/21 01:29:11;;;;;;;60.60;4.30;;;;;;;;;;5115218;28;20820;-68
2022/08/21 01:31:38;;;;;;;60.27;4.80;;;;;;;;;;5115044;28;20495;-68
2022/08/21 01:34:05;;;;;;;60.97;4.40;;;;;;;;;;5115600;28;20552;-68
2022/08/21 01:36:33;;;;;;;60.40;4.37;;;;;;;;;;5115256;28;20949;-67
2022/08/21 01:39:02;;;;;;;70.80;5.30;;;;;;;;;;5115428;28;20456;-67
2022/08/21 01:41:29;;;;;;;59.40;3.50;;;;;;;;;;5114633;28;21034;-68
2022/08/21 01:43:56;;;;;;;59.90;4.03;;;;;;;;;;5115310;28;20445;-67
2022/08/21 01:46:24;;;;;;;59.33;4.00;;;;;;;;;;5114869;28;20442;-69
2022/08/21 01:48:51;;;;;;;61.67;4.93;;;;;;;;;;5112457;28;20942;-68
2022/08/21 01:51:18;;;;;;;62.37;5.20;;;;;;;;;;5114962;28;20441;-68
2022/08/21 01:53:45;;;;;;;60.10;4.40;;;;;;;;;;5115007;28;20449;-68
2022/08/21 01:56:15;;;;;;;60.10;4.20;;;;;;;;;;5114818;28;20445;-68
2022/08/21 01:58:42;;;;;;;59.30;3.83;;;;;;;;;;5113770;28;20840;-68
2022/08/21 02:01:09;;;;;;;60.37;4.00;;;;;;;;;;5114558;28;20441;-68
2022/08/21 02:03:37;;;;;;;60.50;4.07;;;;;;;;;;5114778;28;20620;-69
2022/08/21 02:06:05;;;;;;;59.57;3.60;;;;;;;;;;5114783;28;20452;-69
2022/08/21 02:08:33;;;;;;;59.47;3.93;;;;;;;;;;5113973;28;20832;-67
2022/08/21 02:11:01;;;;;;;59.90;4.17;;;;;;;;;;5114103;28;20452;-68
2022/08/21 02:13:29;;;;;;;61.00;4.00;;;;;;;;;;5114110;28;20508;-68
2022/08/21 02:15:57;;;;;;;60.53;4.10;;;;;;;;;;5114126;28;20452;-68
2022/08/21 02:18:24;;;;;;;61.10;3.73;;;;;;;;;;5114321;28;20823;-68
2022/08/21 02:20:51;;;;;;;59.50;3.80;;;;;;;;;;5113678;28;20526;-68
2022/08/21 02:23:18;;;;;;;60.10;3.90;;;;;;;;;;5114206;28;20465;-69
2022/08/21 02:25:46;;;;;;;60.00;4.30;;;;;;;;;;5114145;28;20448;-68
2022/08/21 02:28:14;;;;;;;60.23;4.13;;;;;;;;;;5114200;28;20945;-69
2022/08/21 02:30:45;;;;;;;59.13;3.40;;;;;;;;;;5113685;28;20441;-68
2022/08/21 02:33:12;;;;;;;59.80;4.10;;;;;;;;;;5113869;28;20507;-68
2022/08/21 02:35:41;;;;;;;59.97;3.60;;;;;;;;;;5114436;28;20999;-69
2022/08/21 02:38:10;;;;;;;59.60;3.60;;;;;;;;;;5114159;28;20449;-68
2022/08/21 02:40:38;;;;;;;59.10;3.87;;;;;;;;;;5114215;28;20449;-68
2022/08/21 02:43:06;;;;;;;59.23;3.67;;;;;;;;;;5114074;28;20484;-68
2022/08/21 02:45:34;;;;;;;60.37;3.63;;;;;;;;;;5113576;28;20446;-68
2022/08/21 02:48:03;;;;;;;59.30;3.73;;;;;;;;;;5113360;28;20528;-68
2022/08/21 02:50:32;;;;;;;59.67;3.90;;;;;;;;;;5112839;28;20442;-68
2022/08/21 02:52:59;;;;;;;59.57;3.90;;;;;;;;;;5112480;28;20495;-68
2022/08/21 02:55:28;;;;;;;59.50;3.70;;;;;;;;;;5112624;28;20441;-68
2022/08/21 02:57:56;;;;;;;59.40;3.40;;;;;;;;;;5112320;28;20448;-66
2022/08/21 03:00:24;;;;;;;61.17;4.30;;;;;;;;;;5112159;28;20811;-68
2022/08/21 03:02:51;;;;;;;59.57;3.57;;;;;;;;;;5112295;28;20472;-68
2022/08/21 03:05:20;;;;;;;60.10;3.97;;;;;;;;;;5112256;28;20453;-68
2022/08/21 03:07:48;;;;;;;62.00;3.53;;;;;;;;;;5112422;28;20605;-68
2022/08/21 03:10:15;;;;;;;59.60;3.53;;;;;;;;;;5113300;28;20864;-69
2022/08/21 03:12:43;;;;;;;59.47;4.00;;;;;;;;;;5116433;28;20854;-67
2022/08/21 03:15:15;;;;;;;59.43;3.90;;;;;;;;;;5116562;28;20441;-69
2022/08/21 03:17:42;;;;;;;59.77;3.70;;;;;;;;;;5116609;28;20451;-69
2022/08/21 03:20:10;;;;;;;60.50;4.20;;;;;;;;;;5116210;28;20453;-69
2022/08/21 03:22:39;;;;;;;59.60;3.80;;;;;;;;;;5116451;28;20459;-69
2022/08/21 03:25:06;;;;;;;59.17;3.70;;;;;;;;;;5117049;28;20447;-69
2022/08/21 03:27:36;;;;;;;59.37;3.60;;;;;;;;;;5117380;28;20441;-68
2022/08/21 03:30:04;;;;;;;59.47;3.50;;;;;;;;;;5117436;28;20840;-68
2022/08/21 03:32:31;;;;;;;59.40;3.90;;;;;;;;;;5117961;27;20488;-68
2022/08/21 03:34:59;;;;;;;59.40;3.40;;;;;;;;;;5118739;28;20961;-69
2022/08/21 03:37:27;;;;;;;59.40;3.60;;;;;;;;;;5118846;28;20702;-69
2022/08/21 03:39:56;;;;;;;59.77;3.80;;;;;;;;;;5119612;28;20469;-69
2022/08/21 03:42:23;;;;;;;59.77;4.00;;;;;;;;;;5120407;28;20462;-69
2022/08/21 03:44:50;;;;;;;59.00;3.57;;;;;;;;;;5120940;28;20445;-69
2022/08/21 03:47:18;;;;;;;59.93;4.03;;;;;;;;;;5121146;28;20528;-69
2022/08/21 03:49:45;;;;;;;59.70;4.30;;;;;;;;;;5121126;28;20953;-69
2022/08/21 03:52:12;;;;;;;61.13;4.67;;;;;;;;;;5121184;28;21103;-69
2022/08/21 03:54:40;;;;;;;59.00;3.30;;;;;;;;;;5121783;28;20464;-69
2022/08/21 03:57:08;;;;;;;59.97;4.23;;;;;;;;;;5122526;28;20452;-69
2022/08/21 03:59:35;;;;;;;59.50;4.07;;;;;;;;;;5121895;28;20488;-69
2022/08/21 04:02:03;;;;;;;60.07;3.80;;;;;;;;;;5121925;28;20465;-69
2022/08/21 04:04:31;;;;;;;60.33;3.97;;;;;;;;;;5120833;28;20438;-69
2022/08/21 04:06:58;;;;;;;59.97;4.10;;;;;;;;;;5122249;28;20536;-68
2022/08/21 04:09:26;;;;;;;59.20;3.50;;;;;;;;;;5122167;28;20528;-69
2022/08/21 04:11:53;;;;;;;59.93;3.77;;;;;;;;;;5122274;28;20552;-69
2022/08/21 04:14:22;;;;;;;58.67;3.40;;;;;;;;;;5121717;28;20538;-68
2022/08/21 04:16:49;;;;;;;59.27;3.50;;;;;;;;;;5121893;28;20464;-69
2022/08/21 04:19:16;;;;;;;59.60;3.90;;;;;;;;;;5122241;28;20724;-69
2022/08/21 04:21:43;;;;;;;59.40;3.63;;;;;;;;;;5122212;28;20469;-69
2022/08/21 04:24:11;;;;;;;59.77;3.80;;;;;;;;;;5122408;28;20438;-69
2022/08/21 04:26:39;;;;;;;59.07;3.40;;;;;;;;;;5122292;28;20459;-69
2022/08/21 04:29:07;;;;;;;59.17;3.60;;;;;;;;;;5119534;28;20512;-69
2022/08/21 04:31:36;;;;;;;59.30;3.80;;;;;;;;;;5121810;28;20457;-69
2022/08/21 04:34:04;;;;;;;61.17;4.20;;;;;;;;;;5122527;28;20489;-69
2022/08/21 04:36:31;;;;;;;59.00;3.47;;;;;;;;;;5122500;28;20451;-68
2022/08/21 04:38:58;;;;;;;59.50;3.23;;;;;;;;;;5122180;28;20446;-69
2022/08/21 04:41:25;;;;;;;59.77;3.73;;;;;;;;;;5121552;28;20497;-69
2022/08/21 04:43:54;;;;;;;59.00;3.33;;;;;;;;;;5121776;28;20444;-68
2022/08/21 04:46:22;;;;;;;58.90;3.50;;;;;;;;;;5122007;28;20473;-68
2022/08/21 04:48:50;;;;;;;59.30;3.50;;;;;;;;;;5121688;28;20903;-68
2022/08/21 04:51:19;;;;;;;59.23;3.53;;;;;;;;;;5121796;28;20891;-69
2022/08/21 04:53:48;;;;;;;59.73;3.80;;;;;;;;;;5121262;28;20553;-69
2022/08/21 04:56:21;;;;;;;59.40;3.43;;;;;;;;;;5121123;28;20445;-69
2022/08/21 04:58:49;;;;;;;59.33;3.63;;;;;;;;;;5121827;28;20529;-69
2022/08/21 05:01:18;;;;;;;59.70;4.17;;;;;;;;;;5121432;28;20873;-69
2022/08/21 05:03:46;;;;;;;59.00;3.50;;;;;;;;;;5121115;28;20465;-69
2022/08/21 05:06:16;;;;;;;59.00;3.40;;;;;;;;;;5121585;28;20528;-69
2022/08/21 05:08:45;;;;;;;59.30;3.57;;;;;;;;;;5121228;28;20438;-68
2022/08/21 05:11:12;;;;;;;60.10;3.87;;;;;;;;;;5121151;28;20446;-69
2022/08/21 05:13:41;;;;;;;59.57;3.57;;;;;;;;;;5121818;28;21004;-69
2022/08/21 05:16:08;;;;;;;59.70;3.50;;;;;;;;;;5121576;28;20453;-68
2022/08/21 05:18:35;;;;;;;61.33;3.50;;;;;;;;;;5119895;28;20537;-69
2022/08/21 05:21:02;;;;;;;59.20;3.57;;;;;;;;;;5120581;28;20451;-69
2022/08/21 05:23:31;;;;;;;78.17;3.77;;;;;;;;;;5120724;28;20532;-70
2022/08/21 05:25:58;;;;;;;59.60;3.23;;;;;;;;;;5121110;28;20451;-68
2022/08/21 05:28:25;;;;;;;59.90;3.70;;;;;;;;;;5119717;28;20849;-69
2022/08/21 05:30:52;;;;;;;59.90;4.30;;;;;;;;;;5119705;28;20515;-69
2022/08/21 05:33:19;;;;;;;59.67;3.80;;;;;;;;;;5118721;28;20545;-69
2022/08/21 05:35:47;;;;;;;60.27;3.07;;;;;;;;;;5119199;28;20581;-69
2022/08/21 05:38:14;;;;;;;58.90;3.40;;;;;;;;;;5119346;28;20466;-68
2022/08/21 05:40:42;;;;;;;59.53;3.47;;;;;;;;;;5119280;28;20444;-69
2022/08/21 05:43:10;;;;;;;59.20;3.40;;;;;;;;;;5120242;28;20461;-69
2022/08/21 05:45:37;;;;;;;59.60;3.60;;;;;;;;;;5119944;28;20449;-69
2022/08/21 05:48:07;;;;;;;60.00;3.90;;;;;;;;;;5120139;28;20967;-67
2022/08/21 05:50:37;;;;;;;60.00;3.87;;;;;;;;;;5120127;28;20445;-69
2022/08/21 05:53:04;;;;;;;59.37;3.90;;;;;;;;;;5119688;28;20520;-69
2022/08/21 05:55:31;;;;;;;60.13;4.30;;;;;;;;;;5121135;28;20454;-69
2022/08/21 05:58:00;;;;;;;60.13;4.27;;;;;;;;;;5120514;28;20541;-69
2022/08/21 06:00:27;;;;;;;59.40;3.20;;;;;;;;;;5119044;28;20446;-69
2022/08/21 06:02:54;;;;;;;59.20;3.43;;;;;;;;;;5120359;28;20468;-69
2022/08/21 06:05:22;;;;;;;59.70;3.50;;;;;;;;;;5120016;28;20446;-68
2022/08/21 06:07:49;;;;;;;59.90;4.23;;;;;;;;;;5120790;28;20445;-68
2022/08/21 06:10:16;;;;;;;59.60;3.87;;;;;;;;;;5120213;28;20889;-69
2022/08/21 06:12:43;;;;;;;59.63;3.90;;;;;;;;;;5120232;28;20492;-69
2022/08/21 06:15:12;;;;;;;59.40;3.70;;;;;;;;;;5119868;28;20882;-69
2022/08/21 06:17:39;;;;;;;60.07;4.17;;;;;;;;;;5119571;28;20536;-68
2022/08/21 06:20:07;;;;;;;59.80;4.23;;;;;;;;;;5119709;28;20444;-69
2022/08/21 06:22:34;;;;;;;68.20;4.10;;;;;;;;;;5120443;28;20525;-69
2022/08/21 06:25:01;;;;;;;59.00;3.90;;;;;;;;;;5120180;28;20544;-68
2022/08/21 06:27:29;;;;;;;59.57;4.13;;;;;;;;;;5119629;28;20909;-69
2022/08/21 06:29:57;;;;;;;61.50;5.27;;;;;;;;;;5119242;28;20544;-69
2022/08/21 06:32:25;;;;;;;60.60;4.90;;;;;;;;;;5119544;28;20522;-68
2022/08/21 06:34:53;;;;;;;59.20;3.87;;;;;;;;;;5120808;28;20552;-69
2022/08/21 06:37:20;;;;;;;59.47;4.20;;;;;;;;;;5120463;28;20449;-69
2022/08/21 06:39:47;;;;;;;59.37;3.63;;;;;;;;;;5119509;28;20491;-69
2022/08/21 06:42:15;;;;;;;59.80;4.50;;;;;;;;;;5118443;28;20465;-69
2022/08/21 06:44:42;;;;;;;60.40;4.30;;;;;;;;;;5118964;27;20498;-69
2022/08/21 06:47:09;;;;;;;59.67;3.70;;;;;;;;;;5118687;28;20533;-69
2022/08/21 06:49:38;;;;;;;59.77;4.40;;;;;;;;;;5118076;28;20448;-69
2022/08/21 06:52:05;;;;;;;60.37;4.87;;;;;;;;;;5117631;28;20475;-69
2022/08/21 06:54:33;;;;;;;59.40;4.00;;;;;;;;;;5116402;28;20569;-69
2022/08/21 06:57:00;;;;;;;59.47;4.37;;;;;;;;;;5115310;28;20518;-69
2022/08/21 06:59:28;;;;;;;60.70;4.67;;;;;;;;;;5115650;28;20445;-69
2022/08/21 07:01:55;;;;;;;59.60;4.27;;;;;;;;;;5115353;28;21070;-69
2022/08/21 07:04:22;;;;;;;60.87;5.00;;;;;;;;;;5114197;28;20486;-69
2022/08/21 07:06:50;;;;;;;59.57;4.17;;;;;;;;;;5113879;28;20441;-69
2022/08/21 07:09:18;;;;;;;60.60;4.50;;;;;;;;;;5112535;28;20442;-68
2022/08/21 07:11:46;;;;;;;60.07;4.10;;;;;;;;;;5112397;28;20478;-68
2022/08/21 07:14:13;;;;;;;59.27;3.87;;;;;;;;;;5112150;28;20484;-68
2022/08/21 07:16:40;;;;;;;60.53;4.60;;;;;;;;;;5112357;28;20476;-68
2022/08/21 07:19:08;;;;;;;61.87;4.10;;;;;;;;;;5111938;28;20963;-69
2022/08/21 07:21:35;;;;;;;72.20;5.50;;;;;;;;;;5113340;28;20470;-68
2022/08/21 07:24:04;;;;;;;60.27;4.90;;;;;;;;;;5113952;28;20444;-68
2022/08/21 07:26:31;;;;;;;68.40;4.30;;;;;;;;;;5113801;28;20449;-67
2022/08/21 07:28:58;;;;;;;59.23;3.70;;;;;;;;;;5114535;28;20531;-68
2022/08/21 07:31:26;;;;;;;59.60;3.97;;;;;;;;;;5114795;28;21021;-68
2022/08/21 07:33:53;;;;;;;60.13;4.00;;;;;;;;;;5114592;28;21014;-68
2022/08/21 07:36:20;;;;;;;59.00;3.60;;;;;;;;;;5112910;28;20476;-68
2022/08/21 07:38:48;;;;;;;61.20;5.03;;;;;;;;;;5113422;28;20457;-68
2022/08/21 07:41:17;;;;;;;59.60;3.97;;;;;;;;;;5113833;28;20555;-68
2022/08/21 07:43:45;;;;;;;60.60;4.50;;;;;;;;;;5114082;28;20486;-68
2022/08/21 07:46:12;;;;;;;60.50;5.63;;;;;;;;;;5114319;28;20449;-68
2022/08/21 07:48:39;;;;;;;62.43;5.50;;;;;;;;;;5114769;28;20463;-68
2022/08/21 07:51:08;;;;;;;65.77;5.47;;;;;;;;;;5114368;28;20517;-68
2022/08/21 07:53:35;;;;;;;60.93;4.10;;;;;;;;;;5114354;28;20482;-68
2022/08/21 07:56:03;;;;;;;59.57;4.20;;;;;;;;;;5115367;28;20453;-68
2022/08/21 07:58:32;;;;;;;60.00;4.33;;;;;;;;;;5117695;28;20446;-66
2022/08/21 08:00:59;;;;;;;60.27;4.23;;;;;;;;;;5118216;28;20470;-66
2022/08/21 08:03:26;;;;;;;59.07;4.13;;;;;;;;;;5117993;28;20815;-66
2022/08/21 08:05:54;;;;;;;60.73;4.30;;;;;;;;;;5117135;28;20448;-65
2022/08/21 08:08:21;;;;;;;59.50;4.37;;;;;;;;;;5116089;28;20447;-67
2022/08/21 08:10:49;;;;;;;60.50;4.30;;;;;;;;;;5115745;28;20456;-68
2022/08/21 08:13:16;;;;;;;60.00;4.30;;;;;;;;;;5115153;28;20987;-68
2022/08/21 08:15:45;;;;;;;60.60;4.20;;;;;;;;;;5115143;28;20452;-69
2022/08/21 08:18:12;;;;;;;62.83;5.17;;;;;;;;;;5115080;28;20444;-69
2022/08/21 08:20:40;;;;;;;59.90;4.20;;;;;;;;;;5114948;28;20450;-69
2022/08/21 08:23:07;;;;;;;58.73;3.53;;;;;;;;;;5115765;28;20472;-69
2022/08/21 08:25:34;;;;;;;59.97;4.10;;;;;;;;;;5115245;28;20488;-69
2022/08/21 08:28:02;;;;;;;61.27;4.63;;;;;;;;;;5114800;28;20805;-69
2022/08/21 08:30:29;;;;;;;61.73;3.70;;;;;;;;;;5114604;28;20826;-69
2022/08/21 08:32:59;;;;;;;59.60;3.67;;;;;;;;;;5114578;28;20462;-69
2022/08/21 08:35:28;;;;;;;59.20;4.00;;;;;;;;;;5115608;28;20530;-69
2022/08/21 08:37:55;;;;;;;60.50;5.03;;;;;;;;;;5115536;28;20441;-69
2022/08/21 08:40:28;;;;;;;61.43;4.43;;;;;;;;;;5114670;28;20536;-69
2022/08/21 08:42:56;;;;;;;71.40;4.23;;;;;;;;;;5114733;28;20996;-69
2022/08/21 08:45:26;;;;;;;59.57;4.00;;;;;;;;;;5116388;28;20518;-69
2022/08/21 08:47:57;;;;;;;59.20;3.57;;;;;;;;;;5115131;28;20502;-68
2022/08/21 08:50:29;;;;;;;59.00;3.73;;;;;;;;;;5114363;27;20828;-69
2022/08/21 08:52:59;;;;;;;60.87;5.20;;;;;;;;;;5114983;28;20481;-69
2022/08/21 08:55:30;;;;;;;59.70;3.90;;;;;;;;;;5115589;28;20481;-69
2022/08/21 08:57:58;;;;;;;59.47;4.00;;;;;;;;;;5114993;28;20442;-68
2022/08/21 09:00:25;;;;;;;59.37;3.93;;;;;;;;;;5114451;28;20446;-68
2022/08/21 09:02:54;;;;;;;59.40;3.40;;;;;;;;;;5114393;28;20464;-69
2022/08/21 09:05:23;;;;;;;60.77;4.57;;;;;;;;;;5114503;28;20437;-68
2022/08/21 09:07:59;;;;;;;62.27;4.47;;;;;;;;;;5113237;28;20455;-69
2022/08/21 09:10:32;;;;;;;59.40;4.17;;;;;;;;;;5114234;28;20451;-69
2022/08/21 09:13:03;;;;;;;59.10;4.00;;;;;;;;;;5114057;28;20489;-69
2022/08/21 09:15:32;;;;;;;61.93;4.27;;;;;;;;;;5114176;28;20858;-69
2022/08/21 09:18:12;;;;;;;60.80;4.00;;;;;;;;;;5113796;28;20446;-69
2022/08/21 09:20:41;;;;;;;60.20;4.07;;;;;;;;;;5113957;28;20447;-69
2022/08/21 09:23:17;;;;;;;61.10;4.60;;;;;;;;;;5114396;28;20473;-69
2022/08/21 09:25:47;;;;;;;60.67;4.40;;;;;;;;;;5114256;28;20447;-69
2022/08/21 09:28:14;;;;;;;64.90;4.63;;;;;;;;;;5114293;28;20441;-69
2022/08/21 09:30:42;;;;;;;61.20;4.30;;;;;;;;;;5113952;28;20886;-67
2022/08/21 09:33:13;;;;;;;60.00;3.90;;;;;;;;;;5114204;28;20504;-68
2022/08/21 09:35:49;;;;;;;59.93;3.20;;;;;;;;;;5114838;28;20858;-67
2022/08/21 09:38:25;;;;;;;59.47;3.37;;;;;;;;;;5113882;28;20453;-67
2022/08/21 09:40:57;;;;;;;59.10;3.80;;;;;;;;;;5113482;28;20859;-67
2022/08/21 09:43:25;;;;;;;61.20;3.83;;;;;;;;;;5113431;28;21008;-67
2022/08/21 09:46:03;;;;;;;58.57;3.10;;;;;;;;;;5113586;28;20442;-67
2022/08/21 09:48:30;;;;;;;61.60;3.50;;;;;;;;;;5113719;28;20445;-67
2022/08/21 09:51:07;;;;;;;59.00;3.70;;;;;;;;;;5114156;28;20438;-67
2022/08/21 09:53:36;;;;;;;59.87;4.20;;;;;;;;;;5113341;28;20453;-67
2022/08/21 09:58:50;;;;;;;58.70;2.80;;;;;;;;;;5112931;28;20420;-67
2022/08/21 10:01:18;;;;;;;59.33;3.57;;;;;;;;;;5113414;28;20823;-67
2022/08/21 10:03:46;;;;;;;58.70;3.20;;;;;;;;;;5113176;28;20449;-67
2022/08/21 10:06:24;;;;;;;58.80;3.20;;;;;;;;;;5113465;28;20816;-67
2022/08/21 10:08:52;;;;;;;58.40;3.30;;;;;;;;;;5113006;28;20445;-66
2022/08/21 10:11:25;;;;;;;58.97;3.30;;;;;;;;;;5115206;28;20438;-67
2022/08/21 10:13:59;;;;;;;60.27;3.43;;;;;;;;;;5117373;28;20449;-67
2022/08/21 10:16:31;;;;;;;58.40;2.87;;;;;;;;;;5116323;28;20541;-69
2022/08/21 10:19:03;;;;;;;59.80;2.60;;;;;;;;;;5113653;28;20541;-68
2022/08/21 10:21:34;;;;;;;57.50;2.40;;;;;;;;;;5112732;28;20465;-69
2022/08/21 10:24:08;;;;;;;59.97;2.60;;;;;;;;;;5112946;28;20448;-69
2022/08/21 10:26:43;;;;;;;57.10;2.50;;;;;;;;;;5113012;28;20449;-69
2022/08/21 10:29:15;;;;;;;58.00;3.00;;;;;;;;;;5112500;28;20541;-69
2022/08/21 10:31:47;;;;;;;57.10;2.60;;;;;;;;;;5112535;28;20469;-69
2022/08/21 10:34:22;;;;;;;59.60;3.30;;;;;;;;;;5112620;28;20484;-69
2022/08/21 10:36:54;;;;;;;58.50;4.20;;;;;;;;;;5112661;28;20454;-69
2022/08/21 10:39:29;;;;;;;57.00;2.40;;;;;;;;;;5113151;28;20480;-69
2022/08/21 10:42:10;;;;;;;58.70;3.10;;;;;;;;;;5114138;28;20968;-69
2022/08/21 10:44:41;;;;;;;57.97;2.77;;;;;;;;;;5113735;28;20434;-69
2022/08/21 10:47:10;;;;;;;57.47;2.57;;;;;;;;;;5113256;28;20558;-69
2022/08/21 10:49:40;;;;;;;56.33;2.50;;;;;;;;;;5112778;28;20937;-69
2022/08/21 10:52:21;;;;;;;57.10;2.80;;;;;;;;;;5112840;28;20461;-69
2022/08/21 10:54:53;;;;;;;57.90;2.83;;;;;;;;;;5112372;28;20576;-68
2022/08/21 10:57:26;;;;;;;57.57;2.57;;;;;;;;;;5113450;28;20442;-69
2022/08/21 10:59:57;;;;;;;58.33;2.70;;;;;;;;;;5112124;28;20485;-69
2022/08/21 11:02:27;;;;;;;57.90;2.97;;;;;;;;;;5112363;28;20470;-69
2022/08/21 11:04:57;;;;;;;57.30;2.77;;;;;;;;;;5112239;28;20481;-69
2022/08/21 11:07:28;;;;;;;58.07;2.93;;;;;;;;;;5111959;28;20468;-68
2022/08/21 11:09:57;;;;;;;57.20;2.17;;;;;;;;;;5112229;28;20540;-69
2022/08/21 11:12:27;;;;;;;58.47;2.70;;;;;;;;;;5112373;28;20461;-68
2022/08/21 11:14:57;;;;;;;58.10;2.90;;;;;;;;;;5112178;28;20451;-69
2022/08/21 11:17:30;;;;;;;57.50;2.50;;;;;;;;;;5111990;28;20949;-69
2022/08/21 11:20:07;;;;;;;57.77;2.90;;;;;;;;;;5111558;28;20448;-68
2022/08/21 11:22:38;;;;;;;57.90;2.97;;;;;;;;;;5112342;28;20981;-69
2022/08/21 11:25:10;;;;;;;56.60;2.03;;;;;;;;;;5112308;28;20473;-69
2022/08/21 11:27:41;;;;;;;57.00;2.43;;;;;;;;;;5112597;28;20453;-69
2022/08/21 11:30:09;;;;;;;57.77;2.40;;;;;;;;;;5112888;28;20528;-69
2022/08/21 11:32:44;;;;;;;57.80;3.03;;;;;;;;;;5116213;28;20461;-69
2022/08/21 11:35:15;;;;;;;57.37;2.70;;;;;;;;;;5118046;28;20473;-69
2022/08/21 11:37:47;;;;;;;57.30;2.63;;;;;;;;;;5118189;28;20524;-69
2022/08/21 11:40:20;;;;;;;57.07;2.67;;;;;;;;;;5117913;28;20532;-69
2022/08/21 11:42:51;;;;;;;57.10;2.90;;;;;;;;;;5117801;28;20560;-69
2022/08/21 11:45:22;;;;;;;58.60;2.50;;;;;;;;;;5117688;28;20553;-70
2022/08/21 11:47:55;;;;;;;57.20;2.50;;;;;;;;;;5117572;28;20516;-66
2022/08/21 11:50:25;;;;;;;56.77;2.40;;;;;;;;;;5117916;28;20809;-69
2022/08/21 11:52:55;;;;;;;56.90;2.57;;;;;;;;;;5118459;28;20520;-69
2022/08/21 11:55:26;;;;;;;56.97;2.80;;;;;;;;;;5118240;28;20536;-69
2022/08/21 11:57:55;;;;;;;57.53;3.00;;;;;;;;;;5117624;28;20963;-68
2022/08/21 12:00:25;;;;;;;60.30;2.80;;;;;;;;;;5117530;28;20814;-69
2022/08/21 12:02:53;;;;;;;57.17;2.63;;;;;;;;;;5118300;28;20461;-69
2022/08/21 12:05:26;;;;;;;56.77;2.43;;;;;;;;;;5118133;28;20561;-69
2022/08/21 12:08:01;;;;;;;57.63;3.13;;;;;;;;;;5118302;28;21134;-69
2022/08/21 12:10:35;;;;;;;57.80;2.47;;;;;;;;;;5119025;28;20540;-69
2022/08/21 12:13:09;;;;;;;58.30;2.70;;;;;;;;;;5118267;28;20461;-68
2022/08/21 12:15:36;;;;;;;56.70;2.63;;;;;;;;;;5117963;28;20487;-69
2022/08/21 12:18:05;;;;;;;58.40;2.87;;;;;;;;;;5118298;28;20450;-69
2022/08/21 12:20:40;;;;;;;56.20;2.30;;;;;;;;;;5118160;28;20888;-69
2022/08/21 12:23:18;;;;;;;57.03;2.77;;;;;;;;;;5117368;28;20468;-69
2022/08/21 12:25:48;;;;;;;58.47;2.60;;;;;;;;;;5117237;28;20484;-69
2022/08/21 12:28:16;;;;;;;56.80;2.87;;;;;;;;;;5116003;28;20456;-69
2022/08/21 12:30:44;;;;;;;56.50;2.43;;;;;;;;;;5116096;28;20446;-69
2022/08/21 12:33:21;;;;;;;57.30;2.37;;;;;;;;;;5116192;28;20926;-69
2022/08/21 12:35:49;;;;;;;57.17;2.70;;;;;;;;;;5115368;28;20451;-68
2022/08/21 12:38:19;;;;;;;56.87;2.37;;;;;;;;;;5115465;28;20461;-67
2022/08/21 12:40:50;;;;;;;57.20;2.57;;;;;;;;;;5114539;28;20533;-67
2022/08/21 12:43:20;;;;;;;58.40;2.77;;;;;;;;;;5114936;28;20469;-67
2022/08/21 12:45:48;;;;;;;56.60;2.00;;;;;;;;;;5114600;28;21013;-67
2022/08/21 12:48:17;;;;;;;57.43;2.50;;;;;;;;;;5116978;28;20454;-67
2022/08/21 12:50:46;;;;;;;57.00;2.57;;;;;;;;;;5117095;28;20484;-67
2022/08/21 12:53:17;;;;;;;57.27;2.90;;;;;;;;;;5116630;28;20481;-69
2022/08/21 12:55:44;;;;;;;58.17;2.73;;;;;;;;;;5116692;28;20533;-69
2022/08/21 12:58:19;;;;;;;56.27;2.20;;;;;;;;;;5115780;28;20442;-67
2022/08/21 13:00:50;;;;;;;56.53;2.60;;;;;;;;;;5114140;28;20445;-68
2022/08/21 13:03:17;;;;;;;56.77;2.60;;;;;;;;;;5115181;28;20468;-68
2022/08/21 13:05:44;;;;;;;56.90;2.63;;;;;;;;;;5115240;28;20527;-68
2022/08/21 13:08:13;;;;;;;58.00;2.60;;;;;;;;;;5115531;28;20441;-68
2022/08/21 13:10:41;;;;;;;56.77;2.20;;;;;;;;;;5116032;28;20446;-68
2022/08/21 13:13:11;;;;;;;56.73;2.87;;;;;;;;;;5115907;28;20472;-68
2022/08/21 13:15:40;;;;;;;56.97;2.57;;;;;;;;;;5114403;28;20446;-68
2022/08/21 13:18:08;;;;;;;56.20;2.30;;;;;;;;;;5114229;28;20448;-68
2022/08/21 13:20:37;;;;;;;57.47;2.80;;;;;;;;;;5114505;28;21044;-68
2022/08/21 13:23:05;;;;;;;57.23;2.50;;;;;;;;;;5114808;28;20866;-68
2022/08/21 13:25:36;;;;;;;56.57;2.33;;;;;;;;;;5113708;28;20996;-68
2022/08/21 13:28:14;;;;;;;58.43;3.10;;;;;;;;;;5114244;28;20445;-68
2022/08/21 13:30:44;;;;;;;57.30;2.33;;;;;;;;;;5113487;28;20453;-67
2022/08/21 13:33:13;;;;;;;57.07;2.30;;;;;;;;;;5113272;28;21045;-67
2022/08/21 13:35:48;;;;;;;57.17;2.53;;;;;;;;;;5113627;28;20477;-67
2022/08/21 13:38:16;;;;;;;56.87;2.30;;;;;;;;;;5113501;28;20453;-68
2022/08/21 13:40:46;;;;;;;57.00;2.40;;;;;;;;;;5113294;28;20458;-68
2022/08/21 13:43:14;;;;;;;58.53;3.17;;;;;;;;;;5113502;28;20552;-68
2022/08/21 13:45:44;;;;;;;57.10;2.63;;;;;;;;;;5113092;28;20477;-68
2022/08/21 13:48:12;;;;;;;57.47;3.03;;;;;;;;;;5113511;28;20452;-68
2022/08/21 13:50:39;;;;;;;58.07;2.40;;;;;;;;;;5113465;28;20442;-67
2022/08/21 13:53:08;;;;;;;57.67;2.53;;;;;;;;;;5112800;28;20492;-68
2022/08/21 13:55:37;;;;;;;56.63;2.40;;;;;;;;;;5112875;28;20904;-67
2022/08/21 13:58:04;;;;;;;57.40;2.33;;;;;;;;;;5112975;28;20484;-68
2022/08/21 14:00:34;;;;;;;56.67;2.17;;;;;;;;;;5112933;28;20449;-68
2022/08/21 14:03:06;;;;;;;58.17;2.40;;;;;;;;;;5113111;28;20469;-68
2022/08/21 14:05:34;;;;;;;56.90;2.70;;;;;;;;;;5112926;28;20488;-67
2022/08/21 14:08:05;;;;;;;57.63;2.40;;;;;;;;;;5112825;28;20448;-67
2022/08/21 14:10:33;;;;;;;56.70;2.40;;;;;;;;;;5112534;28;20442;-68
2022/08/21 14:13:02;;;;;;;57.17;2.57;;;;;;;;;;5113080;28;20469;-69
2022/08/21 14:15:30;;;;;;;56.67;2.47;;;;;;;;;;5113257;28;20438;-67
2022/08/21 14:18:10;;;;;;;56.77;2.60;;;;;;;;;;5112525;28;21058;-67
2022/08/21 14:20:38;;;;;;;57.00;2.80;;;;;;;;;;5113158;28;20449;-67
2022/08/21 14:23:05;;;;;;;56.90;2.20;;;;;;;;;;5112454;28;20814;-68
2022/08/21 14:25:38;;;;;;;57.67;2.40;;;;;;;;;;5112476;28;20482;-68
2022/08/21 14:28:11;;;;;;;58.37;2.40;;;;;;;;;;5113079;28;20452;-67
2022/08/21 14:30:40;;;;;;;57.30;2.70;;;;;;;;;;5112627;28;20446;-67
2022/08/21 14:33:12;;;;;;;58.23;2.60;;;;;;;;;;5112350;28;20470;-67
2022/08/21 14:35:39;;;;;;;57.73;2.50;;;;;;;;;;5112898;28;20441;-68
2022/08/21 14:38:13;;;;;;;58.17;2.67;;;;;;;;;;5113517;28;20456;-67
2022/08/21 14:40:40;;;;;;;60.83;2.50;;;;;;;;;;5112796;28;20446;-68
2022/08/21 14:43:07;;;;;;;57.13;2.53;;;;;;;;;;5112367;28;20844;-68